createdAt,value
2019-03-19T00:00:20.260Z,88.01
2019-03-19T00:02:50.956Z,87.33
2019-03-19T00:05:21.484Z,87.32
2019-03-19T00:07:52.121Z,87.50
2019-03-19T00:10:22.790Z,87.95
2019-03-19T00:12:53.131Z,87.99
2019-03-19T00:15:23.647Z,88.06
2019-03-19T00:17:54.246Z,88.19
2019-03-19T00:20:24.695Z,88.30
2019-03-19T00:22:55.335Z,88.08
2019-03-19T00:25:30.388Z,87.31
2019-03-19T00:27:58.179Z,87.42
2019-03-19T00:30:28.840Z,87.86
2019-03-19T00:32:59.431Z,88.37
2019-03-19T00:35:29.984Z,88.36
2019-03-19T00:38:00.672Z,88.23
2019-03-19T00:40:31.256Z,87.66
2019-03-19T00:43:01.920Z,87.51
2019-03-19T00:45:32.811Z,87.92
2019-03-19T00:48:03.412Z,88.43
2019-03-19T00:50:33.911Z,88.70
2019-03-19T00:53:04.501Z,88.84
2019-03-19T00:55:40.680Z,88.80
2019-03-19T00:58:07.211Z,88.47
2019-03-19T01:00:37.742Z,88.20
2019-03-19T01:03:08.305Z,88.09
2019-03-19T01:05:39.056Z,87.75
2019-03-19T01:08:09.696Z,86.86
2019-03-19T01:10:40.322Z,86.36
2019-03-19T01:13:10.764Z,85.92
2019-03-19T01:15:41.162Z,86.20
2019-03-19T01:18:11.694Z,86.12
2019-03-19T01:20:42.200Z,86.10
2019-03-19T01:23:12.677Z,86.30
2019-03-19T01:25:54.772Z,86.25
2019-03-19T01:28:15.345Z,86.39
2019-03-19T01:30:45.811Z,86.17
2019-03-19T01:33:16.282Z,86.50
2019-03-19T01:35:46.769Z,86.83
2019-03-19T01:38:17.133Z,87.04
2019-03-19T01:40:47.563Z,87.10
2019-03-19T01:43:18.020Z,86.91
2019-03-19T01:45:48.476Z,86.95
2019-03-19T01:48:18.904Z,87.05
2019-03-19T01:50:49.325Z,86.99
2019-03-19T01:53:19.733Z,87.04
2019-03-19T01:55:50.271Z,87.22
2019-03-19T01:58:20.784Z,87.23
2019-03-19T02:00:51.217Z,87.01
2019-03-19T02:03:21.605Z,86.75
2019-03-19T02:05:52.100Z,86.70
2019-03-19T02:08:22.556Z,86.63
2019-03-19T02:10:53.015Z,86.92
2019-03-19T02:13:23.315Z,87.48
2019-03-19T02:15:53.816Z,87.50
2019-03-19T02:18:24.242Z,87.89
2019-03-19T02:20:54.743Z,88.40
2019-03-19T02:23:25.231Z,88.79
2019-03-19T02:25:55.613Z,88.83
2019-03-19T02:28:26.101Z,88.89
2019-03-19T02:30:58.117Z,88.88
2019-03-19T02:33:30.196Z,88.76
2019-03-19T02:36:01.011Z,88.60
2019-03-19T02:38:31.374Z,88.67
2019-03-19T02:41:01.737Z,88.67
2019-03-19T02:43:32.457Z,88.90
2019-03-19T02:46:03.002Z,88.78
2019-03-19T02:48:34.144Z,88.87
2019-03-19T02:51:04.642Z,88.77
2019-03-19T02:53:35.143Z,88.86
2019-03-19T02:56:05.562Z,88.88
2019-03-19T02:58:36.055Z,88.78
2019-03-19T03:01:06.745Z,89.07
2019-03-19T03:03:37.232Z,89.34
2019-03-19T03:06:07.778Z,89.39
2019-03-19T03:08:38.186Z,89.56
2019-03-19T03:11:08.609Z,89.60
2019-03-19T03:13:39.113Z,89.75
2019-03-19T03:16:09.856Z,89.78
2019-03-19T03:18:40.277Z,89.94
2019-03-19T03:21:10.777Z,90.03
2019-03-19T03:23:41.397Z,89.89
2019-03-19T03:26:11.836Z,89.88
2019-03-19T03:28:42.173Z,89.88
2019-03-19T03:31:13.131Z,89.87
2019-03-19T03:33:43.533Z,89.99
2019-03-19T03:36:13.906Z,90.00
2019-03-19T03:38:44.870Z,90.12
2019-03-19T03:41:15.260Z,90.32
2019-03-19T03:43:45.843Z,90.57
2019-03-19T03:46:16.252Z,90.61
2019-03-19T03:48:46.781Z,90.80
2019-03-19T03:51:17.216Z,90.90
2019-03-19T03:53:47.627Z,90.99
2019-03-19T03:56:18.191Z,91.07
2019-03-19T03:58:59.884Z,91.06
2019-03-19T04:01:21.299Z,91.24
2019-03-19T04:03:51.837Z,91.39
2019-03-19T04:06:22.321Z,91.37
2019-03-19T04:08:52.632Z,91.35
2019-03-19T04:11:23.202Z,91.51
2019-03-19T04:13:53.685Z,91.68
2019-03-19T04:16:24.240Z,91.76
2019-03-19T04:18:54.917Z,91.94
2019-03-19T04:21:25.426Z,92.24
2019-03-19T04:23:55.987Z,92.44
2019-03-19T04:26:26.607Z,92.36
2019-03-19T04:28:56.953Z,92.26
2019-03-19T04:31:27.386Z,91.85
2019-03-19T04:33:57.840Z,91.34
2019-03-19T04:36:28.458Z,90.69
2019-03-19T04:38:58.851Z,90.22
2019-03-19T04:41:29.234Z,89.94
2019-03-19T04:43:59.686Z,89.78
2019-03-19T04:46:30.011Z,89.50
2019-03-19T04:49:00.521Z,89.12
2019-03-19T04:51:31.212Z,88.88
2019-03-19T04:54:01.781Z,88.76
2019-03-19T04:56:32.241Z,88.71
2019-03-19T04:59:02.725Z,88.51
2019-03-19T05:01:33.261Z,88.20
2019-03-19T05:04:03.776Z,87.73
2019-03-19T05:06:35.443Z,87.72
2019-03-19T05:09:08.686Z,87.44
2019-03-19T05:11:39.190Z,87.27
2019-03-19T05:14:28.911Z,87.06
2019-03-19T05:16:59.521Z,86.83
2019-03-19T05:19:30.082Z,86.47
2019-03-19T05:22:00.597Z,86.47
2019-03-19T05:24:31.061Z,86.28
2019-03-19T05:27:01.643Z,85.87
2019-03-19T05:29:32.505Z,85.54
2019-03-19T05:32:03.086Z,85.27
2019-03-19T05:34:33.792Z,85.08
2019-03-19T05:37:04.297Z,85.05
2019-03-19T05:39:34.905Z,84.49
2019-03-19T05:42:06.771Z,83.67
2019-03-19T05:44:37.361Z,83.17
2019-03-19T05:47:20.426Z,82.67
2019-03-19T05:49:51.016Z,82.46
2019-03-19T05:52:21.697Z,82.62
2019-03-19T05:54:52.280Z,82.75
2019-03-19T05:57:22.843Z,82.90
2019-03-19T05:59:53.368Z,82.70
2019-03-19T06:02:24.068Z,82.59
2019-03-19T06:04:54.538Z,82.50
2019-03-19T06:07:25.170Z,82.32
2019-03-19T06:09:55.860Z,81.85
2019-03-19T06:12:26.310Z,80.88
2019-03-19T06:14:56.936Z,80.69
2019-03-19T06:17:27.516Z,80.19
2019-03-19T06:19:58.082Z,80.01
2019-03-19T06:22:28.884Z,79.26
2019-03-19T06:24:59.428Z,78.89
2019-03-19T06:27:30.074Z,77.90
2019-03-19T06:30:00.560Z,76.16
2019-03-19T06:32:30.897Z,75.47
2019-03-19T06:35:01.381Z,74.31
2019-03-19T06:37:31.926Z,73.06
2019-03-19T06:40:02.275Z,71.69
2019-03-19T06:42:32.875Z,71.31
2019-03-19T06:45:03.527Z,71.05
2019-03-19T06:47:34.106Z,70.50
2019-03-19T06:50:05.169Z,68.73
2019-03-19T06:52:35.736Z,64.72
2019-03-19T06:55:07.973Z,59.37
2019-03-19T06:57:39.331Z,57.30
2019-03-19T07:00:15.964Z,59.48
2019-03-19T07:02:46.544Z,62.60
2019-03-19T07:05:17.835Z,62.91
2019-03-19T07:07:48.488Z,61.25
2019-03-19T07:10:19.167Z,56.24
2019-03-19T07:12:49.840Z,52.78
2019-03-19T07:15:20.720Z,48.98
2019-03-19T07:17:51.346Z,49.12
2019-03-19T07:20:22.062Z,48.96
2019-03-19T07:22:52.847Z,45.23
2019-03-19T07:25:23.457Z,44.10
2019-03-19T07:27:54.224Z,44.88
2019-03-19T07:30:24.962Z,44.33
2019-03-19T07:32:55.538Z,41.79
2019-03-19T07:35:26.455Z,41.55
2019-03-19T07:37:57.008Z,41.05
2019-03-19T07:40:30.281Z,41.23
2019-03-19T07:43:00.944Z,45.01
2019-03-19T07:45:31.663Z,47.44
2019-03-19T07:48:02.374Z,49.04
2019-03-19T07:50:33.056Z,49.86
2019-03-19T07:53:05.810Z,50.91
2019-03-19T07:55:36.445Z,50.99
2019-03-19T07:58:07.091Z,48.45
2019-03-19T08:00:37.921Z,48.59
2019-03-19T08:03:15.964Z,49.45
2019-03-19T08:05:40.835Z,50.26
2019-03-19T08:08:11.579Z,50.45
2019-03-19T08:10:42.031Z,51.71
2019-03-19T08:13:12.628Z,52.60
2019-03-19T08:15:43.951Z,53.01
2019-03-19T08:18:14.531Z,47.69
2019-03-19T08:20:45.011Z,46.03
2019-03-19T08:23:16.133Z,41.84
2019-03-19T08:25:46.573Z,39.07
2019-03-19T08:28:17.098Z,37.54
2019-03-19T08:30:47.744Z,40.52
2019-03-19T08:33:18.747Z,41.06
2019-03-19T08:35:49.331Z,40.33
2019-03-19T08:38:19.894Z,38.77
2019-03-19T08:40:51.099Z,38.55
2019-03-19T08:43:21.949Z,38.69
2019-03-19T08:45:52.548Z,38.80
2019-03-19T08:48:23.460Z,34.81
2019-03-19T08:50:54.187Z,32.75
2019-03-19T08:53:24.699Z,31.82
2019-03-19T08:55:55.344Z,30.27
2019-03-19T08:58:26.095Z,31.35
2019-03-19T09:00:56.953Z,32.28
2019-03-19T09:03:27.508Z,34.13
2019-03-19T09:05:57.908Z,37.31
2019-03-19T09:08:28.571Z,39.13
2019-03-19T09:10:59.218Z,41.16
2019-03-19T09:13:30.212Z,42.75
2019-03-19T09:16:00.668Z,45.38
2019-03-19T09:18:31.411Z,46.62
2019-03-19T09:21:01.950Z,47.92
2019-03-19T09:23:33.394Z,47.58
2019-03-19T09:26:04.138Z,47.80
2019-03-19T09:28:34.567Z,47.97
2019-03-19T09:31:05.352Z,49.51
2019-03-19T09:33:35.815Z,48.62
2019-03-19T09:36:06.328Z,48.90
2019-03-19T09:38:36.881Z,48.84
2019-03-19T09:41:07.578Z,46.72
2019-03-19T09:43:38.236Z,44.44
2019-03-19T09:46:08.761Z,43.08
2019-03-19T09:48:39.224Z,42.12
2019-03-19T09:51:09.724Z,44.51
2019-03-19T09:53:40.235Z,45.81
2019-03-19T09:56:14.967Z,47.18
2019-03-19T09:58:45.610Z,47.20
2019-03-19T10:01:16.129Z,45.85
2019-03-19T10:03:46.730Z,46.70
2019-03-19T10:06:17.480Z,45.06
2019-03-19T10:08:48.091Z,44.91
2019-03-19T10:11:18.613Z,45.20
2019-03-19T10:13:49.326Z,45.30
2019-03-19T10:16:20.041Z,47.04
2019-03-19T10:18:50.552Z,46.41
2019-03-19T10:21:21.101Z,46.65
2019-03-19T10:23:51.601Z,47.75
2019-03-19T10:26:22.126Z,47.34
2019-03-19T10:28:52.734Z,48.79
2019-03-19T10:31:23.291Z,48.38
2019-03-19T10:33:53.761Z,49.08
2019-03-19T10:36:24.323Z,49.19
2019-03-19T10:38:54.897Z,50.00
2019-03-19T10:41:25.375Z,52.21
2019-03-19T10:43:55.890Z,53.12
2019-03-19T10:46:26.402Z,51.43
2019-03-19T10:48:56.971Z,51.62
2019-03-19T10:51:27.492Z,52.03
2019-03-19T10:53:57.965Z,52.81
2019-03-19T10:56:28.416Z,50.18
2019-03-19T10:58:59.099Z,48.97
2019-03-19T11:01:29.728Z,48.85
2019-03-19T11:04:00.104Z,49.96
2019-03-19T11:06:30.757Z,49.72
2019-03-19T11:09:01.397Z,50.62
2019-03-19T11:11:31.853Z,51.62
2019-03-19T11:14:02.268Z,51.86
2019-03-19T11:16:32.668Z,50.64
2019-03-19T11:19:03.149Z,49.43
2019-03-19T11:21:33.670Z,51.19
2019-03-19T11:24:04.432Z,50.73
2019-03-19T11:26:35.188Z,48.19
2019-03-19T11:29:05.759Z,47.26
2019-03-19T11:31:36.432Z,46.24
2019-03-19T11:34:07.102Z,45.47
2019-03-19T11:36:37.721Z,43.06
2019-03-19T11:39:10.596Z,43.38
2019-03-19T11:41:41.436Z,43.11
2019-03-19T11:44:12.119Z,43.13
2019-03-19T11:46:42.540Z,43.26
2019-03-19T11:49:12.996Z,42.86
2019-03-19T11:51:43.400Z,42.28
2019-03-19T11:54:14.305Z,42.64
2019-03-19T11:56:44.876Z,42.34
2019-03-19T11:59:15.297Z,44.78
2019-03-19T12:01:45.834Z,41.16
2019-03-19T12:04:16.307Z,42.32
2019-03-19T12:06:47.045Z,41.22
2019-03-19T12:09:36.710Z,41.84
2019-03-19T12:12:07.743Z,42.40
2019-03-19T12:14:38.245Z,42.83
2019-03-19T12:17:08.907Z,41.63
2019-03-19T12:19:39.540Z,39.35
2019-03-19T12:22:10.200Z,40.57
2019-03-19T12:24:40.753Z,40.26
2019-03-19T12:27:11.361Z,40.59
2019-03-19T12:29:42.046Z,42.11
2019-03-19T12:32:12.700Z,41.88
2019-03-19T12:34:43.266Z,42.29
2019-03-19T12:37:13.956Z,41.92
2019-03-19T12:39:44.445Z,42.27
2019-03-19T12:42:14.978Z,40.78
2019-03-19T12:44:45.745Z,42.32
2019-03-19T12:47:16.436Z,41.30
2019-03-19T12:49:47.016Z,41.54
2019-03-19T12:52:17.500Z,41.23
2019-03-19T12:54:50.814Z,40.58
2019-03-19T12:57:24.053Z,38.39
2019-03-19T12:59:54.467Z,38.86
2019-03-19T13:02:25.044Z,39.13
2019-03-19T13:04:55.665Z,39.26
2019-03-19T13:07:26.184Z,40.77
2019-03-19T13:09:56.729Z,39.76
2019-03-19T13:12:27.200Z,40.48
2019-03-19T13:14:57.691Z,40.34
2019-03-19T13:17:28.904Z,40.40
2019-03-19T13:19:59.502Z,41.80
2019-03-19T13:22:30.070Z,42.21
2019-03-19T13:25:00.591Z,42.04
2019-03-19T13:27:31.147Z,41.51
2019-03-19T13:30:01.746Z,42.25
2019-03-19T13:32:32.321Z,43.06
2019-03-19T13:35:02.935Z,43.57
2019-03-19T13:37:33.389Z,44.00
2019-03-19T13:40:04.517Z,43.80
2019-03-19T13:42:35.249Z,43.64
2019-03-19T13:45:07.054Z,43.67
2019-03-19T13:47:37.697Z,44.08
2019-03-19T13:50:09.171Z,43.36
2019-03-19T13:52:39.760Z,43.82
2019-03-19T13:55:12.861Z,40.76
2019-03-19T13:57:46.469Z,41.17
2019-03-19T14:00:17.343Z,40.42
2019-03-19T14:02:47.968Z,41.43
2019-03-19T14:05:18.611Z,41.70
2019-03-19T14:07:49.369Z,43.01
2019-03-19T14:10:20.063Z,43.07
2019-03-19T14:12:50.991Z,43.51
2019-03-19T14:15:21.730Z,44.73
2019-03-19T14:17:52.248Z,46.33
2019-03-19T14:20:25.622Z,46.34
2019-03-19T14:22:56.147Z,46.97
2019-03-19T14:25:26.643Z,47.08
2019-03-19T14:27:57.205Z,46.32
2019-03-19T14:30:28.022Z,46.31
2019-03-19T14:32:58.545Z,48.04
2019-03-19T14:35:48.037Z,45.38
2019-03-19T14:38:18.677Z,43.82
2019-03-19T14:40:49.451Z,43.36
2019-03-19T14:43:19.970Z,43.54
2019-03-19T14:45:50.683Z,44.12
2019-03-19T14:48:21.136Z,44.22
2019-03-19T14:50:51.656Z,44.27
2019-03-19T14:53:22.402Z,43.49
2019-03-19T14:55:54.549Z,44.16
2019-03-19T14:58:25.328Z,45.27
2019-03-19T15:00:56.063Z,44.24
2019-03-19T15:03:26.731Z,44.27
2019-03-19T15:05:57.466Z,44.92
2019-03-19T15:08:28.102Z,44.81
2019-03-19T15:10:58.667Z,45.25
2019-03-19T15:13:29.114Z,45.61
2019-03-19T15:15:59.674Z,45.58
2019-03-19T15:18:30.314Z,44.49
2019-03-19T15:21:00.986Z,46.18
2019-03-19T15:23:31.634Z,47.00
2019-03-19T15:26:02.294Z,46.75
2019-03-19T15:28:32.821Z,46.67
2019-03-19T15:31:03.311Z,46.90
2019-03-19T15:33:34.085Z,47.11
2019-03-19T15:36:04.590Z,47.60
2019-03-19T15:38:35.099Z,47.25
2019-03-19T15:41:05.785Z,46.21
2019-03-19T15:43:36.261Z,46.60
2019-03-19T15:46:06.869Z,47.01
2019-03-19T15:48:37.518Z,47.26
2019-03-19T15:51:08.023Z,46.84
2019-03-19T15:53:38.638Z,47.75
2019-03-19T15:56:09.452Z,47.58
2019-03-19T15:58:39.921Z,49.09
2019-03-19T16:01:10.453Z,48.77
2019-03-19T16:03:41.114Z,50.12
2019-03-19T16:06:11.728Z,50.61
2019-03-19T16:08:42.242Z,49.92
2019-03-19T16:11:12.947Z,51.45
2019-03-19T16:13:44.628Z,52.41
2019-03-19T16:16:17.263Z,52.37
2019-03-19T16:18:47.559Z,52.80
2019-03-19T16:21:18.415Z,53.45
2019-03-19T16:23:50.451Z,53.15
2019-03-19T16:26:21.030Z,52.90
2019-03-19T16:28:51.781Z,52.85
2019-03-19T16:31:22.250Z,53.45
2019-03-19T16:33:53.017Z,53.13
2019-03-19T16:36:23.500Z,53.66
2019-03-19T16:38:54.079Z,54.63
2019-03-19T16:41:24.861Z,54.55
2019-03-19T16:43:55.535Z,55.18
2019-03-19T16:46:27.827Z,56.16
2019-03-19T16:48:58.425Z,56.86
2019-03-19T16:51:28.933Z,57.37
2019-03-19T16:53:59.779Z,58.04
2019-03-19T16:56:32.889Z,58.48
2019-03-19T16:59:03.572Z,58.56
2019-03-19T17:01:34.139Z,58.75
2019-03-19T17:04:04.944Z,58.94
2019-03-19T17:06:35.608Z,58.47
2019-03-19T17:09:08.901Z,59.54
2019-03-19T17:11:40.036Z,59.68
2019-03-19T17:14:11.873Z,60.03
2019-03-19T17:16:47.310Z,60.85
2019-03-19T17:19:19.051Z,61.16
2019-03-19T17:21:49.739Z,61.66
2019-03-19T17:24:22.463Z,61.84
2019-03-19T17:26:57.448Z,62.32
2019-03-19T17:29:31.931Z,62.45
2019-03-19T17:32:12.421Z,62.98
2019-03-19T17:34:38.897Z,63.43
2019-03-19T17:37:09.907Z,64.33
2019-03-19T17:39:45.353Z,65.00
2019-03-19T17:42:15.803Z,65.13
2019-03-19T17:44:46.324Z,65.63
2019-03-19T17:47:17.060Z,66.04
2019-03-19T17:49:47.690Z,66.82
2019-03-19T17:52:19.647Z,66.63
2019-03-19T17:54:50.296Z,67.10
2019-03-19T17:57:21.011Z,66.99
2019-03-19T17:59:53.702Z,66.93
2019-03-19T18:02:24.555Z,67.09
2019-03-19T18:04:55.471Z,66.84
2019-03-19T18:07:29.652Z,67.26
2019-03-19T18:10:00.146Z,67.58
2019-03-19T18:12:34.418Z,67.90
2019-03-19T18:15:08.060Z,68.23
2019-03-19T18:17:44.022Z,68.43
2019-03-19T18:20:14.873Z,68.05
2019-03-19T18:22:46.901Z,68.21
2019-03-19T18:25:17.647Z,68.37
2019-03-19T18:27:49.454Z,68.56
2019-03-19T18:30:21.306Z,68.76
2019-03-19T18:32:56.439Z,68.63
2019-03-19T18:35:29.316Z,69.20
2019-03-19T18:38:03.766Z,69.24
2019-03-19T18:40:38.959Z,69.69
2019-03-19T18:43:10.791Z,69.79
2019-03-19T18:45:47.766Z,69.99
2019-03-19T18:48:23.920Z,70.35
2019-03-19T18:50:57.971Z,70.74
2019-03-19T18:53:28.872Z,71.25
2019-03-19T18:55:59.670Z,71.21
2019-03-19T18:58:30.356Z,71.22
2019-03-19T19:01:06.034Z,71.02
2019-03-19T19:03:41.354Z,71.05
2019-03-19T19:06:14.089Z,71.51
2019-03-19T19:08:46.341Z,73.01
2019-03-19T19:11:20.879Z,72.45
2019-03-19T19:13:55.296Z,72.40
2019-03-19T19:16:33.376Z,72.89
2019-03-19T19:19:08.170Z,73.02
2019-03-19T19:21:38.827Z,74.27
2019-03-19T19:24:12.482Z,74.94
2019-03-19T19:26:43.472Z,75.24
2019-03-19T19:29:14.226Z,75.17
2019-03-19T19:31:51.806Z,75.93
2019-03-19T19:34:24.465Z,75.81
2019-03-19T19:36:56.605Z,76.30
2019-03-19T19:39:29.431Z,76.83
2019-03-19T19:42:05.330Z,77.98
2019-03-19T19:44:40.909Z,78.50
2019-03-19T19:47:22.834Z,78.58
2019-03-19T19:49:58.120Z,78.66
2019-03-19T19:52:33.712Z,79.02
2019-03-19T19:55:10.956Z,79.07
2019-03-19T19:57:45.974Z,79.64
2019-03-19T20:00:19.517Z,79.37
2019-03-19T20:02:52.751Z,78.48
2019-03-19T20:05:27.931Z,77.83
2019-03-19T20:07:59.721Z,78.24
2019-03-19T20:10:32.476Z,78.51
2019-03-19T20:13:06.606Z,78.35
2019-03-19T20:15:37.496Z,77.53
2019-03-19T20:18:10.667Z,78.06
2019-03-19T20:20:46.469Z,78.51
2019-03-19T20:23:18.639Z,78.60
2019-03-19T20:25:49.299Z,78.70
2019-03-19T20:28:24.240Z,78.87
2019-03-19T20:30:55.941Z,79.36
2019-03-19T20:33:26.718Z,79.86
2019-03-19T20:35:57.353Z,80.13
2019-03-19T20:38:29.310Z,80.62
2019-03-19T20:41:01.370Z,80.57
2019-03-19T20:43:33.050Z,80.14
2019-03-19T20:46:07.199Z,80.61
2019-03-19T20:48:45.224Z,80.46
2019-03-19T20:51:18.016Z,80.14
2019-03-19T20:53:59.785Z,80.01
2019-03-19T20:56:36.080Z,79.79
2019-03-19T20:59:11.513Z,79.21
2019-03-19T21:01:50.480Z,78.75
2019-03-19T21:04:31.768Z,79.09
2019-03-19T21:07:02.471Z,79.44
2019-03-19T21:09:33.199Z,79.85
2019-03-19T21:12:04.163Z,80.45
2019-03-19T21:14:37.804Z,80.61
2019-03-19T21:17:13.067Z,80.57
2019-03-19T21:19:45.092Z,80.33
2019-03-19T21:22:16.307Z,79.86
2019-03-19T21:24:47.023Z,79.70
2019-03-19T21:27:17.720Z,79.72
2019-03-19T21:29:49.184Z,79.92
2019-03-19T21:32:22.269Z,80.37
2019-03-19T21:34:52.938Z,80.65
2019-03-19T21:37:23.832Z,80.78
2019-03-19T21:39:54.632Z,80.91
2019-03-19T21:42:25.224Z,81.21
2019-03-19T21:44:55.699Z,81.23
2019-03-19T21:47:26.234Z,81.38
2019-03-19T21:49:56.587Z,81.31
2019-03-19T21:52:26.998Z,80.60
2019-03-19T21:54:57.533Z,80.30
2019-03-19T21:57:28.134Z,79.99
2019-03-19T21:59:58.616Z,80.95
2019-03-19T22:02:29.305Z,80.85
2019-03-19T22:04:59.978Z,81.05
2019-03-19T22:07:30.499Z,80.99
2019-03-19T22:10:01.093Z,81.16
2019-03-19T22:12:31.611Z,81.20
2019-03-19T22:15:02.235Z,81.86
2019-03-19T22:17:32.930Z,81.97
2019-03-19T22:20:03.629Z,82.56
2019-03-19T22:22:34.061Z,82.60
2019-03-19T22:25:04.667Z,82.84
2019-03-19T22:27:35.254Z,82.89
2019-03-19T22:30:07.518Z,82.85
2019-03-19T22:32:38.309Z,83.13
2019-03-19T22:35:08.987Z,82.99
2019-03-19T22:37:40.111Z,82.21
2019-03-19T22:40:13.026Z,81.96
2019-03-19T22:42:43.695Z,82.31
2019-03-19T22:45:15.502Z,82.38
2019-03-19T22:47:46.121Z,82.12
2019-03-19T22:50:17.184Z,81.92
2019-03-19T22:52:48.225Z,81.90
2019-03-19T22:55:28.491Z,82.10
2019-03-19T22:57:51.170Z,81.92
2019-03-19T23:00:41.509Z,82.02
2019-03-19T23:03:12.328Z,82.62
2019-03-19T23:05:42.949Z,82.93
2019-03-19T23:08:13.953Z,83.28
2019-03-19T23:10:47.234Z,83.09
2019-03-19T23:13:17.899Z,82.90
2019-03-19T23:15:48.554Z,82.23
2019-03-19T23:18:19.201Z,82.31
2019-03-19T23:20:49.750Z,82.88
2019-03-19T23:23:20.339Z,83.62
2019-03-19T23:25:50.960Z,83.65
2019-03-19T23:28:21.518Z,83.32
2019-03-19T23:30:52.489Z,83.75
2019-03-19T23:33:23.054Z,84.61
2019-03-19T23:35:53.605Z,84.28
2019-03-19T23:38:24.144Z,84.30
2019-03-19T23:40:54.603Z,84.10
2019-03-19T23:43:25.296Z,84.13
2019-03-19T23:45:55.719Z,84.49
2019-03-19T23:48:26.259Z,85.15
2019-03-19T23:50:56.894Z,85.41
2019-03-19T23:53:27.509Z,84.63
2019-03-19T23:55:58.150Z,84.58
2019-03-19T23:58:28.549Z,84.66
